sensor_id;sensor_type;location;lat;lon;timestamp;pressure;altitude;pressure_sealevel;temperature;humidity
61026;BME280;46911;32.650;-16.902;2022-10-16T00:01:08;101335.28;;;20.31;61.95
61026;BME280;46911;32.650;-16.902;2022-10-16T00:03:10;101341.69;;;20.30;62.02
61026;BME280;46911;32.650;-16.902;2022-10-16T00:05:11;101339.97;;;20.29;61.46
61026;BME280;46911;32.650;-16.902;2022-10-16T00:07:12;101319.53;;;20.17;61.39
61026;BME280;46911;32.650;-16.902;2022-10-16T00:09:18;101333.47;;;20.22;61.38
61026;BME280;46911;32.650;-16.902;2022-10-16T00:11:29;101332.25;;;20.16;61.43
61026;BME280;46911;32.650;-16.902;2022-10-16T00:13:37;101331.94;;;20.19;61.75
61026;BME280;46911;32.650;-16.902;2022-10-16T00:15:38;101318.81;;;20.15;61.71
61026;BME280;46911;32.650;-16.902;2022-10-16T00:17:42;101323.72;;;20.11;61.84
61026;BME280;46911;32.650;-16.902;2022-10-16T00:19:46;101335.78;;;20.17;61.72
61026;BME280;46911;32.650;-16.902;2022-10-16T00:21:47;101318.13;;;20.13;60.72
61026;BME280;46911;32.650;-16.902;2022-10-16T00:23:56;101324.78;;;20.18;60.24
61026;BME280;46911;32.650;-16.902;2022-10-16T00:26:01;101302.88;;;20.12;60.09
61026;BME280;46911;32.650;-16.902;2022-10-16T00:28:03;101325.34;;;20.22;60.04
61026;BME280;46911;32.650;-16.902;2022-10-16T00:30:04;101303.72;;;20.12;60.18
61026;BME280;46911;32.650;-16.902;2022-10-16T00:32:07;101322.66;;;20.22;59.94
61026;BME280;46911;32.650;-16.902;2022-10-16T00:34:08;101313.66;;;20.21;59.85
61026;BME280;46911;32.650;-16.902;2022-10-16T00:36:15;101320.19;;;20.29;60.00
61026;BME280;46911;32.650;-16.902;2022-10-16T00:38:17;101313.66;;;20.21;60.18
61026;BME280;46911;32.650;-16.902;2022-10-16T00:40:17;101323.56;;;20.31;60.66
61026;BME280;46911;32.650;-16.902;2022-10-16T00:42:19;101318.31;;;20.29;60.57
61026;BME280;46911;32.650;-16.902;2022-10-16T00:46:47;101326.66;;;20.36;60.42
61026;BME280;46911;32.650;-16.902;2022-10-16T00:49:15;101325.44;;;20.30;60.66
61026;BME280;46911;32.650;-16.902;2022-10-16T00:51:19;101320.63;;;20.24;60.81
61026;BME280;46911;32.650;-16.902;2022-10-16T00:53:27;101322.66;;;20.22;61.14
61026;BME280;46911;32.650;-16.902;2022-10-16T00:55:28;101311.00;;;20.12;61.59
61026;BME280;46911;32.650;-16.902;2022-10-16T00:57:30;101314.97;;;20.17;62.11
61026;BME280;46911;32.650;-16.902;2022-10-16T00:59:39;101304.44;;;20.14;61.68
61026;BME280;46911;32.650;-16.902;2022-10-16T01:01:40;101298.94;;;20.06;61.89
61026;BME280;46911;32.650;-16.902;2022-10-16T01:03:44;101306.59;;;20.11;61.66
61026;BME280;46911;32.650;-16.902;2022-10-16T01:05:54;101298.38;;;20.02;61.85
61026;BME280;46911;32.650;-16.902;2022-10-16T01:12:26;101291.88;;;19.95;61.87
61026;BME280;46911;32.650;-16.902;2022-10-16T01:14:47;101284.53;;;19.87;61.86
61026;BME280;46911;32.650;-16.902;2022-10-16T01:17:04;101284.13;;;19.82;61.66
61026;BME280;46911;32.650;-16.902;2022-10-16T01:19:16;101282.41;;;19.81;61.23
61026;BME280;46911;32.650;-16.902;2022-10-16T01:21:29;101282.13;;;19.74;61.88
61026;BME280;46911;32.650;-16.902;2022-10-16T01:29:08;101283.78;;;19.57;62.12
61026;BME280;46911;32.650;-16.902;2022-10-16T01:31:11;101276.25;;;19.51;62.57
61026;BME280;46911;32.650;-16.902;2022-10-16T01:33:24;101285.06;;;19.53;62.33
61026;BME280;46911;32.650;-16.902;2022-10-16T01:35:36;101267.91;;;19.45;62.55
61026;BME280;46911;32.650;-16.902;2022-10-16T01:37:46;101288.25;;;19.49;62.16
61026;BME280;46911;32.650;-16.902;2022-10-16T01:39:52;101285.53;;;19.49;62.46
61026;BME280;46911;32.650;-16.902;2022-10-16T01:42:06;101283.41;;;19.43;62.32
61026;BME280;46911;32.650;-16.902;2022-10-16T01:44:21;101273.47;;;19.33;62.41
61026;BME280;46911;32.650;-16.902;2022-10-16T01:46:26;101278.63;;;19.36;62.16
61026;BME280;46911;32.650;-16.902;2022-10-16T01:48:28;101274.78;;;19.29;62.42
61026;BME280;46911;32.650;-16.902;2022-10-16T01:50:33;101264.41;;;19.24;62.37
61026;BME280;46911;32.650;-16.902;2022-10-16T01:52:39;101282.00;;;19.38;62.55
61026;BME280;46911;32.650;-16.902;2022-10-16T01:54:44;101255.59;;;19.22;62.76
61026;BME280;46911;32.650;-16.902;2022-10-16T01:56:53;101259.84;;;19.25;62.29
61026;BME280;46911;32.650;-16.902;2022-10-16T01:59:25;101272.06;;;19.29;62.18
61026;BME280;46911;32.650;-16.902;2022-10-16T02:01:31;101265.72;;;19.20;62.33
61026;BME280;46911;32.650;-16.902;2022-10-16T02:03:40;101254.19;;;19.18;61.99
61026;BME280;46911;32.650;-16.902;2022-10-16T02:05:54;101272.38;;;19.26;61.85
61026;BME280;46911;32.650;-16.902;2022-10-16T02:07:56;101260.03;;;19.14;62.02
61026;BME280;46911;32.650;-16.902;2022-10-16T02:09:57;101267.44;;;19.21;61.93
61026;BME280;46911;32.650;-16.902;2022-10-16T02:11:59;101270.66;;;19.25;61.85
61026;BME280;46911;32.650;-16.902;2022-10-16T02:14:06;101269.25;;;19.21;61.87
61026;BME280;46911;32.650;-16.902;2022-10-16T02:16:13;101261.28;;;19.19;61.73
61026;BME280;46911;32.650;-16.902;2022-10-16T02:18:15;101244.81;;;19.13;61.79
61026;BME280;46911;32.650;-16.902;2022-10-16T02:20:18;101261.44;;;19.18;61.69
61026;BME280;46911;32.650;-16.902;2022-10-16T02:22:28;101243.41;;;19.09;61.71
61026;BME280;46911;32.650;-16.902;2022-10-16T02:26:45;101253.75;;;19.13;62.01
61026;BME280;46911;32.650;-16.902;2022-10-16T02:28:54;101259.31;;;19.12;62.08
61026;BME280;46911;32.650;-16.902;2022-10-16T02:31:09;101260.03;;;19.14;61.79
61026;BME280;46911;32.650;-16.902;2022-10-16T02:33:12;101252.09;;;19.12;62.10
61026;BME280;46911;32.650;-16.902;2022-10-16T02:35:18;101262.03;;;19.21;61.68
61026;BME280;46911;32.650;-16.902;2022-10-16T02:37:21;101263.28;;;19.27;61.68
61026;BME280;46911;32.650;-16.902;2022-10-16T02:39:24;101259.41;;;19.30;61.66
61026;BME280;46911;32.650;-16.902;2022-10-16T02:41:27;101255.09;;;19.37;61.23
61026;BME280;46911;32.650;-16.902;2022-10-16T02:43:34;101252.81;;;19.42;61.02
61026;BME280;46911;32.650;-16.902;2022-10-16T02:45:35;101243.53;;;19.45;61.01
61026;BME280;46911;32.650;-16.902;2022-10-16T02:47:38;101248.91;;;19.54;60.61
61026;BME280;46911;32.650;-16.902;2022-10-16T02:49:39;101255.97;;;19.65;60.25
61026;BME280;46911;32.650;-16.902;2022-10-16T02:51:42;101252.66;;;19.71;60.11
61026;BME280;46911;32.650;-16.902;2022-10-16T02:53:43;101244.78;;;19.78;60.31
61026;BME280;46911;32.650;-16.902;2022-10-16T02:55:44;101244.78;;;19.78;60.03
61026;BME280;46911;32.650;-16.902;2022-10-16T02:57:45;101224.88;;;19.69;60.17
61026;BME280;46911;32.650;-16.902;2022-10-16T02:59:46;101241.09;;;19.79;60.21
61026;BME280;46911;32.650;-16.902;2022-10-16T03:01:47;101234.53;;;19.82;60.22
61026;BME280;46911;32.650;-16.902;2022-10-16T03:03:48;101220.59;;;19.77;60.46
61026;BME280;46911;32.650;-16.902;2022-10-16T03:05:49;101216.16;;;19.76;60.47
61026;BME280;46911;32.650;-16.902;2022-10-16T03:07:50;101223.72;;;19.82;60.87
61026;BME280;46911;32.650;-16.902;2022-10-16T03:09:54;101226.09;;;19.85;61.06
61026;BME280;46911;32.650;-16.902;2022-10-16T03:11:56;101203.19;;;19.79;61.15
61026;BME280;46911;32.650;-16.902;2022-10-16T03:13:59;101222.56;;;19.84;61.22
61026;BME280;46911;32.650;-16.902;2022-10-16T03:16:02;101208.75;;;19.78;61.16
61026;BME280;46911;32.650;-16.902;2022-10-16T03:18:05;101210.19;;;19.82;61.35
61026;BME280;46911;32.650;-16.902;2022-10-16T03:20:06;101206.31;;;19.84;61.41
61026;BME280;46911;32.650;-16.902;2022-10-16T03:22:07;101198.31;;;19.83;61.53
61026;BME280;46911;32.650;-16.902;2022-10-16T03:24:09;101211.25;;;19.89;61.36
61026;BME280;46911;32.650;-16.902;2022-10-16T03:26:09;101196.34;;;19.85;61.05
61026;BME280;46911;32.650;-16.902;2022-10-16T03:28:10;101196.34;;;19.85;61.28
61026;BME280;46911;32.650;-16.902;2022-10-16T03:30:12;101188.09;;;19.77;61.40
61026;BME280;46911;32.650;-16.902;2022-10-16T03:32:18;101203.47;;;19.86;61.36
61026;BME280;46911;32.650;-16.902;2022-10-16T03:34:20;101191.13;;;19.73;61.69
61026;BME280;46911;32.650;-16.902;2022-10-16T03:36:24;101194.19;;;19.79;62.39
61026;BME280;46911;32.650;-16.902;2022-10-16T03:38:27;101179.03;;;19.68;62.37
61026;BME280;46911;32.650;-16.902;2022-10-16T03:40:31;101182.22;;;19.63;62.47
61026;BME280;46911;32.650;-16.902;2022-10-16T03:42:32;101181.66;;;19.60;62.68
61026;BME280;46911;32.650;-16.902;2022-10-16T03:44:33;101191.63;;;19.59;62.48
61026;BME280;46911;32.650;-16.902;2022-10-16T03:46:38;101177.16;;;19.50;62.11
61026;BME280;46911;32.650;-16.902;2022-10-16T03:48:39;101166.09;;;19.44;62.19
61026;BME280;46911;32.650;-16.902;2022-10-16T03:50:43;101167.09;;;19.43;62.41
61026;BME280;46911;32.650;-16.902;2022-10-16T03:52:46;101171.97;;;19.39;62.39
61026;BME280;46911;32.650;-16.902;2022-10-16T03:54:47;101166.16;;;19.34;62.65
61026;BME280;46911;32.650;-16.902;2022-10-16T03:56:48;101173.56;;;19.32;62.71
61026;BME280;46911;32.650;-16.902;2022-10-16T03:58:52;101159.09;;;19.23;63.25
61026;BME280;46911;32.650;-16.902;2022-10-16T04:00:53;101160.69;;;19.16;63.56
61026;BME280;46911;32.650;-16.902;2022-10-16T04:02:57;101162.78;;;19.22;63.78
61026;BME280;46911;32.650;-16.902;2022-10-16T04:05:00;101169.50;;;19.18;63.60
61026;BME280;46911;32.650;-16.902;2022-10-16T04:07:03;101164.53;;;19.13;63.64
61026;BME280;46911;32.650;-16.902;2022-10-16T04:09:04;101155.16;;;19.07;63.33
61026;BME280;46911;32.650;-16.902;2022-10-16T04:11:05;101139.28;;;18.95;63.29
61026;BME280;46911;32.650;-16.902;2022-10-16T04:13:10;101144.25;;;18.99;63.25
61026;BME280;46911;32.650;-16.902;2022-10-16T04:15:11;101126.47;;;18.97;62.86
61026;BME280;46911;32.650;-16.902;2022-10-16T04:17:11;101138.53;;;19.02;62.82
61026;BME280;46911;32.650;-16.902;2022-10-16T04:19:15;101136.16;;;18.99;62.84
61026;BME280;46911;32.650;-16.902;2022-10-16T04:21:16;101143.84;;;18.94;62.70
61026;BME280;46911;32.650;-16.902;2022-10-16T04:23:19;101136.28;;;18.88;62.70
61026;BME280;46911;32.650;-16.902;2022-10-16T04:25:20;101145.00;;;18.92;63.02
61026;BME280;46911;32.650;-16.902;2022-10-16T04:27:23;101137.88;;;18.81;62.78
61026;BME280;46911;32.650;-16.902;2022-10-16T04:29:26;101140.16;;;18.85;62.94
61026;BME280;46911;32.650;-16.902;2022-10-16T04:31:29;101147.41;;;18.85;63.59
61026;BME280;46911;32.650;-16.902;2022-10-16T04:33:33;101159.78;;;18.87;63.55
61026;BME280;46911;32.650;-16.902;2022-10-16T04:35:34;101160.91;;;18.85;63.53
61026;BME280;46911;32.650;-16.902;2022-10-16T04:37:37;101147.28;;;18.77;63.61
61026;BME280;46911;32.650;-16.902;2022-10-16T04:39:42;101157.38;;;18.84;63.18
61026;BME280;46911;32.650;-16.902;2022-10-16T04:41:44;101147.28;;;18.77;63.17
61026;BME280;46911;32.650;-16.902;2022-10-16T04:43:47;101151.41;;;18.81;62.49
61026;BME280;46911;32.650;-16.902;2022-10-16T04:45:48;101150.41;;;18.82;62.02
61026;BME280;46911;32.650;-16.902;2022-10-16T04:47:51;101136.22;;;18.70;62.28
61026;BME280;46911;32.650;-16.902;2022-10-16T04:49:57;101156.81;;;18.81;61.92
61026;BME280;46911;32.650;-16.902;2022-10-16T04:51:57;101152.41;;;18.80;61.57
61026;BME280;46911;32.650;-16.902;2022-10-16T04:53:58;101164.50;;;18.85;61.59
61026;BME280;46911;32.650;-16.902;2022-10-16T04:56:05;101157.81;;;18.80;61.53
61026;BME280;46911;32.650;-16.902;2022-10-16T04:58:06;101166.63;;;18.82;61.57
61026;BME280;46911;32.650;-16.902;2022-10-16T05:00:09;101172.34;;;18.79;61.53
61026;BME280;46911;32.650;-16.902;2022-10-16T05:02:16;101167.94;;;18.68;61.78
61026;BME280;46911;32.650;-16.902;2022-10-16T05:04:19;101185.72;;;18.70;61.75
61026;BME280;46911;32.650;-16.902;2022-10-16T05:06:22;101183.03;;;18.61;62.12
61026;BME280;46911;32.650;-16.902;2022-10-16T05:08:25;101182.19;;;18.60;62.39
61026;BME280;46911;32.650;-16.902;2022-10-16T05:10:26;101195.00;;;18.58;62.45
61026;BME280;46911;32.650;-16.902;2022-10-16T05:12:30;101192.84;;;18.52;62.85
61026;BME280;46911;32.650;-16.902;2022-10-16T05:14:35;101198.56;;;18.49;63.18
61026;BME280;46911;32.650;-16.902;2022-10-16T05:16:41;101194.31;;;18.36;63.74
61026;BME280;46911;32.650;-16.902;2022-10-16T05:18:42;101214.78;;;18.39;63.92
61026;BME280;46911;32.650;-16.902;2022-10-16T05:20:45;101215.06;;;18.36;64.17
61026;BME280;46911;32.650;-16.902;2022-10-16T05:22:46;101222.72;;;18.40;63.64
61026;BME280;46911;32.650;-16.902;2022-10-16T05:24:49;101219.03;;;18.42;63.79
61026;BME280;46911;32.650;-16.902;2022-10-16T05:26:55;101205.13;;;18.36;63.51
61026;BME280;46911;32.650;-16.902;2022-10-16T05:28:56;101211.22;;;18.38;63.64
61026;BME280;46911;32.650;-16.902;2022-10-16T05:31:06;101226.16;;;18.43;63.95
61026;BME280;46911;32.650;-16.902;2022-10-16T05:33:12;101220.47;;;18.46;64.02
61026;BME280;46911;32.650;-16.902;2022-10-16T05:35:18;101225.56;;;18.49;63.97
61026;BME280;46911;32.650;-16.902;2022-10-16T05:37:19;101229.25;;;18.48;63.43
61026;BME280;46911;32.650;-16.902;2022-10-16T05:39:23;101226.00;;;18.54;63.04
61026;BME280;46911;32.650;-16.902;2022-10-16T05:41:24;101217.31;;;18.60;62.67
61026;BME280;46911;32.650;-16.902;2022-10-16T05:43:30;101223.72;;;18.59;62.59
61026;BME280;46911;32.650;-16.902;2022-10-16T05:45:35;101222.84;;;18.58;62.65
61026;BME280;46911;32.650;-16.902;2022-10-16T05:47:35;101226.56;;;18.57;62.80
61026;BME280;46911;32.650;-16.902;2022-10-16T05:49:41;101231.53;;;18.62;62.40
61026;BME280;46911;32.650;-16.902;2022-10-16T05:51:44;101228.13;;;18.60;62.39
61026;BME280;46911;32.650;-16.902;2022-10-16T05:53:45;101219.88;;;18.52;62.32
61026;BME280;46911;32.650;-16.902;2022-10-16T05:55:52;101236.22;;;18.60;62.36
61026;BME280;46911;32.650;-16.902;2022-10-16T05:57:56;101228.53;;;18.55;62.30
61026;BME280;46911;32.650;-16.902;2022-10-16T05:59:57;101190.19;;;18.32;62.44
61026;BME280;46911;32.650;-16.902;2022-10-16T06:02:02;101217.03;;;18.53;62.64
61026;BME280;46911;32.650;-16.902;2022-10-16T06:04:06;101218.19;;;18.51;62.56
61026;BME280;46911;32.650;-16.902;2022-10-16T06:06:18;101218.03;;;18.52;62.42
61026;BME280;46911;32.650;-16.902;2022-10-16T06:08:21;101208.66;;;18.47;62.44
61026;BME280;46911;32.650;-16.902;2022-10-16T06:10:23;101220.31;;;18.47;62.82
61026;BME280;46911;32.650;-16.902;2022-10-16T06:12:24;101220.75;;;18.43;62.72
61026;BME280;46911;32.650;-16.902;2022-10-16T06:14:27;101206.53;;;18.40;62.95
61026;BME280;46911;32.650;-16.902;2022-10-16T06:16:31;101210.06;;;18.41;63.21
61026;BME280;46911;32.650;-16.902;2022-10-16T06:18:32;101217.03;;;18.44;63.39
61026;BME280;46911;32.650;-16.902;2022-10-16T06:20:36;101218.59;;;18.46;63.50
61026;BME280;46911;32.650;-16.902;2022-10-16T06:22:40;101217.03;;;18.44;63.37
61026;BME280;46911;32.650;-16.902;2022-10-16T06:24:44;101207.97;;;18.35;63.58
61026;BME280;46911;32.650;-16.902;2022-10-16T06:26:44;101204.53;;;18.33;63.38
61026;BME280;46911;32.650;-16.902;2022-10-16T06:28:46;101210.50;;;18.36;63.89
61026;BME280;46911;32.650;-16.902;2022-10-16T06:30:58;101193.47;;;18.26;63.76
61026;BME280;46911;32.650;-16.902;2022-10-16T06:32:59;101187.38;;;18.24;64.01
61026;BME280;46911;32.650;-16.902;2022-10-16T06:35:00;101198.56;;;18.29;63.97
61026;BME280;46911;32.650;-16.902;2022-10-16T06:37:01;101190.06;;;18.24;63.93
61026;BME280;46911;32.650;-16.902;2022-10-16T06:39:05;101188.06;;;18.26;63.96
61026;BME280;46911;32.650;-16.902;2022-10-16T06:41:14;101201.16;;;18.31;64.04
61026;BME280;46911;32.650;-16.902;2022-10-16T06:43:15;101190.91;;;18.24;64.41
61026;BME280;46911;32.650;-16.902;2022-10-16T06:45:16;101190.34;;;18.21;64.62
61026;BME280;46911;32.650;-16.902;2022-10-16T06:47:21;101188.06;;;18.16;64.79
61026;BME280;46911;32.650;-16.902;2022-10-16T06:49:22;101196.59;;;18.21;65.36
61026;BME280;46911;32.650;-16.902;2022-10-16T06:51:26;101192.03;;;18.22;65.09
61026;BME280;46911;32.650;-16.902;2022-10-16T06:53:33;101193.31;;;18.18;65.23
61026;BME280;46911;32.650;-16.902;2022-10-16T06:55:36;101197.31;;;18.14;65.04
61026;BME280;46911;32.650;-16.902;2022-10-16T06:57:37;101183.81;;;18.04;65.23
61026;BME280;46911;32.650;-16.902;2022-10-16T06:59:38;101179.69;;;18.00;65.20
61026;BME280;46911;32.650;-16.902;2022-10-16T07:01:45;101179.41;;;18.03;65.29
61026;BME280;46911;32.650;-16.902;2022-10-16T07:03:46;101188.19;;;18.05;65.27
61026;BME280;46911;32.650;-16.902;2022-10-16T07:05:48;101173.56;;;17.98;65.06
61026;BME280;46911;32.650;-16.902;2022-10-16T07:07:51;101192.47;;;18.07;64.75
61026;BME280;46911;32.650;-16.902;2022-10-16T07:09:52;101181.41;;;18.11;64.44
61026;BME280;46911;32.650;-16.902;2022-10-16T07:11:53;101173.31;;;18.11;64.28
61026;BME280;46911;32.650;-16.902;2022-10-16T07:13:54;101183.50;;;18.17;64.16
61026;BME280;46911;32.650;-16.902;2022-10-16T07:15:54;101172.88;;;18.15;64.29
61026;BME280;46911;32.650;-16.902;2022-10-16T07:17:55;101156.81;;;18.04;63.88
61026;BME280;46911;32.650;-16.902;2022-10-16T07:19:56;101179.09;;;18.16;64.14
61026;BME280;46911;32.650;-16.902;2022-10-16T07:21:57;101191.19;;;18.21;64.03
61026;BME280;46911;32.650;-16.902;2022-10-16T07:24:04;101194.88;;;18.30;64.12
61026;BME280;46911;32.650;-16.902;2022-10-16T07:26:12;101199.28;;;18.31;63.86
61026;BME280;46911;32.650;-16.902;2022-10-16T07:28:13;101200.56;;;18.47;63.72
61026;BME280;46911;32.650;-16.902;2022-10-16T07:30:14;101206.22;;;18.44;63.80
61026;BME280;46911;32.650;-16.902;2022-10-16T07:32:21;101195.72;;;18.40;63.48
61026;BME280;46911;32.650;-16.902;2022-10-16T07:34:24;101205.66;;;18.50;63.65
61026;BME280;46911;32.650;-16.902;2022-10-16T07:36:25;101206.81;;;18.47;63.25
61026;BME280;46911;32.650;-16.902;2022-10-16T07:38:26;101203.97;;;18.49;63.48
61026;BME280;46911;32.650;-16.902;2022-10-16T07:40:29;101205.38;;;18.53;63.67
61026;BME280;46911;32.650;-16.902;2022-10-16T07:42:30;101213.31;;;18.64;64.03
61026;BME280;46911;32.650;-16.902;2022-10-16T07:44:33;101205.06;;;18.66;63.97
61026;BME280;46911;32.650;-16.902;2022-10-16T07:46:35;101213.56;;;18.81;63.47
61026;BME280;46911;32.650;-16.902;2022-10-16T07:48:36;101212.28;;;18.85;62.80
61026;BME280;46911;32.650;-16.902;2022-10-16T07:50:39;101210.75;;;18.92;63.10
61026;BME280;46911;32.650;-16.902;2022-10-16T07:52:40;101210.75;;;18.92;62.89
61026;BME280;46911;32.650;-16.902;2022-10-16T07:54:41;101220.06;;;19.07;62.53
61026;BME280;46911;32.650;-16.902;2022-10-16T07:56:45;101202.13;;;19.06;62.44
61026;BME280;46911;32.650;-16.902;2022-10-16T07:58:52;101222.28;;;19.22;62.45
61026;BME280;46911;32.650;-16.902;2022-10-16T08:00:53;101218.53;;;19.33;62.59
61026;BME280;46911;32.650;-16.902;2022-10-16T08:03:01;101201.31;;;19.34;62.13
61026;BME280;46911;32.650;-16.902;2022-10-16T08:05:02;101208.69;;;19.42;61.58
61026;BME280;46911;32.650;-16.902;2022-10-16T08:07:03;101223.88;;;19.52;61.23
61026;BME280;46911;32.650;-16.902;2022-10-16T08:09:05;101217.81;;;19.58;60.99
61026;BME280;46911;32.650;-16.902;2022-10-16T08:11:06;101214.59;;;19.55;60.51
61026;BME280;46911;32.650;-16.902;2022-10-16T08:13:10;101222.50;;;19.66;60.66
61026;BME280;46911;32.650;-16.902;2022-10-16T08:15:11;101221.72;;;19.74;60.32
61026;BME280;46911;32.650;-16.902;2022-10-16T08:17:15;101223.97;;;19.79;60.02
61026;BME280;46911;32.650;-16.902;2022-10-16T08:19:18;101226.94;;;19.85;60.23
61026;BME280;46911;32.650;-16.902;2022-10-16T08:21:21;101228.47;;;19.98;59.70
61026;BME280;46911;32.650;-16.902;2022-10-16T08:23:24;101219.03;;;20.02;59.54
61026;BME280;46911;32.650;-16.902;2022-10-16T08:25:26;101229.16;;;20.18;59.64
61026;BME280;46911;32.650;-16.902;2022-10-16T08:27:33;101210.94;;;20.28;59.20
61026;BME280;46911;32.650;-16.902;2022-10-16T08:29:34;101226.72;;;20.51;58.34
61026;BME280;46911;32.650;-16.902;2022-10-16T08:31:35;101222.22;;;20.60;58.28
61026;BME280;46911;32.650;-16.902;2022-10-16T08:33:36;101238.31;;;20.79;58.00
61026;BME280;46911;32.650;-16.902;2022-10-16T08:35:40;101224.97;;;20.86;57.90
61026;BME280;46911;32.650;-16.902;2022-10-16T08:37:43;101231.50;;;21.01;57.46
61026;BME280;46911;32.650;-16.902;2022-10-16T08:39:47;101232.56;;;21.09;57.52
61026;BME280;46911;32.650;-16.902;2022-10-16T08:41:59;101239.63;;;21.28;57.06
61026;BME280;46911;32.650;-16.902;2022-10-16T08:46:55;101232.59;;;21.51;56.92
61026;BME280;46911;32.650;-16.902;2022-10-16T08:49:02;101217.50;;;21.49;56.78
61026;BME280;46911;32.650;-16.902;2022-10-16T08:51:07;101230.78;;;21.60;56.78
61026;BME280;46911;32.650;-16.902;2022-10-16T08:53:15;101226.06;;;21.62;56.84
61026;BME280;46911;32.650;-16.902;2022-10-16T08:57:40;101234.41;;;21.77;57.11
61026;BME280;46911;32.650;-16.902;2022-10-16T08:59:41;101230.69;;;21.86;57.28
61026;BME280;46911;32.650;-16.902;2022-10-16T09:01:47;101234.63;;;22.00;57.31
61026;BME280;46911;32.650;-16.902;2022-10-16T09:08:45;101213.63;;;22.35;57.28
61026;BME280;46911;32.650;-16.902;2022-10-16T09:17:41;101219.25;;;23.31;55.89
61026;BME280;46911;32.650;-16.902;2022-10-16T09:22:27;101221.13;;;25.46;50.38
61026;BME280;46911;32.650;-16.902;2022-10-16T09:24:29;101215.16;;;26.59;47.71
61026;BME280;46911;32.650;-16.902;2022-10-16T09:26:33;101207.31;;;27.48;45.66
61026;BME280;46911;32.650;-16.902;2022-10-16T09:28:34;101220.69;;;27.29;46.75
61026;BME280;46911;32.650;-16.902;2022-10-16T09:30:35;101223.69;;;27.96;45.53
61026;BME280;46911;32.650;-16.902;2022-10-16T09:32:38;101213.22;;;28.13;45.27
61026;BME280;46911;32.650;-16.902;2022-10-16T09:34:54;101218.34;;;27.68;46.50
61026;BME280;46911;32.650;-16.902;2022-10-16T09:37:00;101202.31;;;27.23;47.41
61026;BME280;46911;32.650;-16.902;2022-10-16T09:39:12;101209.97;;;27.34;47.14
61026;BME280;46911;32.650;-16.902;2022-10-16T09:41:19;101214.91;;;26.54;49.03
61026;BME280;46911;32.650;-16.902;2022-10-16T09:45:24;101211.41;;;27.79;47.31
61026;BME280;46911;32.650;-16.902;2022-10-16T09:47:29;101215.19;;;27.71;47.51
61026;BME280;46911;32.650;-16.902;2022-10-16T09:49:30;101226.28;;;28.11;46.29
61026;BME280;46911;32.650;-16.902;2022-10-16T09:51:34;101227.16;;;27.63;47.48
61026;BME280;46911;32.650;-16.902;2022-10-16T09:53:43;101232.16;;;27.39;47.90
61026;BME280;46911;32.650;-16.902;2022-10-16T09:55:53;101228.84;;;27.16;48.30
61026;BME280;46911;32.650;-16.902;2022-10-16T09:57:54;101226.59;;;26.98;48.83
61026;BME280;46911;32.650;-16.902;2022-10-16T09:59:58;101223.75;;;27.13;48.89
61026;BME280;46911;32.650;-16.902;2022-10-16T10:02:04;101227.00;;;26.95;48.26
61026;BME280;46911;32.650;-16.902;2022-10-16T10:04:14;101215.59;;;27.19;47.80
61026;BME280;46911;32.650;-16.902;2022-10-16T10:06:28;101219.66;;;27.85;46.73
61026;BME280;46911;32.650;-16.902;2022-10-16T10:08:30;101215.75;;;28.55;45.12
61026;BME280;46911;32.650;-16.902;2022-10-16T10:10:39;101221.00;;;28.23;44.94
61026;BME280;46911;32.650;-16.902;2022-10-16T10:12:45;101222.72;;;28.51;44.31
61026;BME280;46911;32.650;-16.902;2022-10-16T10:14:54;101219.47;;;27.94;45.45
61026;BME280;46911;32.650;-16.902;2022-10-16T10:17:22;101234.28;;;28.13;45.51
61026;BME280;46911;32.650;-16.902;2022-10-16T10:19:23;101224.97;;;29.34;43.46
61026;BME280;46911;32.650;-16.902;2022-10-16T10:21:32;101226.25;;;29.12;43.00
61026;BME280;46911;32.650;-16.902;2022-10-16T10:23:33;101233.06;;;29.02;43.84
61026;BME280;46911;32.650;-16.902;2022-10-16T10:25:53;101222.47;;;29.06;43.69
61026;BME280;46911;32.650;-16.902;2022-10-16T10:28:07;101218.34;;;29.42;41.87
61026;BME280;46911;32.650;-16.902;2022-10-16T10:30:27;101226.09;;;28.93;43.52
61026;BME280;46911;32.650;-16.902;2022-10-16T10:36:54;101241.94;;;28.71;42.96
61026;BME280;46911;32.650;-16.902;2022-10-16T10:46:05;101220.44;;;29.99;41.38
61026;BME280;46911;32.650;-16.902;2022-10-16T10:48:20;101230.47;;;29.34;42.25
61026;BME280;46911;32.650;-16.902;2022-10-16T10:54:55;101236.88;;;28.28;43.92
61026;BME280;46911;32.650;-16.902;2022-10-16T11:01:18;101233.25;;;28.40;43.79
61026;BME280;46911;32.650;-16.902;2022-10-16T11:10:22;101244.34;;;27.92;44.03
61026;BME280;46911;32.650;-16.902;2022-10-16T11:12:33;101246.00;;;27.80;44.87
61026;BME280;46911;32.650;-16.902;2022-10-16T11:17:19;101256.69;;;28.63;43.94
61026;BME280;46911;32.650;-16.902;2022-10-16T11:22:01;101253.44;;;27.09;46.52
61026;BME280;46911;32.650;-16.902;2022-10-16T11:24:35;101246.63;;;26.70;47.71
61026;BME280;46911;32.650;-16.902;2022-10-16T11:26:41;101254.16;;;27.60;45.15
61026;BME280;46911;32.650;-16.902;2022-10-16T11:28:54;101246.81;;;28.76;42.61
61026;BME280;46911;32.650;-16.902;2022-10-16T11:33:46;101217.22;;;28.84;42.83
61026;BME280;46911;32.650;-16.902;2022-10-16T11:36:11;101215.84;;;29.79;41.14
61026;BME280;46911;32.650;-16.902;2022-10-16T11:38:28;101221.41;;;29.00;42.10
61026;BME280;46911;32.650;-16.902;2022-10-16T11:40:33;101211.75;;;28.58;43.16
61026;BME280;46911;32.650;-16.902;2022-10-16T11:42:46;101217.63;;;29.01;42.98
61026;BME280;46911;32.650;-16.902;2022-10-16T11:45:27;101221.19;;;29.67;41.73
61026;BME280;46911;32.650;-16.902;2022-10-16T11:49:30;101218.25;;;28.90;43.10